sensor_id;sensor_type;location;lat;lon;timestamp;P1;durP1;ratioP1;P2;durP2;ratioP2
19111;SDS011;9688;51.906;8.376;2022-08-21T00:01:30;17.67;;;11.03;;
19111;SDS011;9688;51.906;8.376;2022-08-21T00:04:34;15.03;;;9.77;;
19111;SDS011;9688;51.906;8.376;2022-08-21T00:07:40;16.30;;;11.00;;
19111;SDS011;9688;51.906;8.376;2022-08-21T00:10:45;18.00;;;10.60;;
19111;SDS011;9688;51.906;8.376;2022-08-21T00:13:51;15.70;;;11.97;;
19111;SDS011;9688;51.906;8.376;2022-08-21T00:16:55;16.87;;;11.97;;
19111;SDS011;9688;51.906;8.376;2022-08-21T00:20:00;14.30;;;10.50;;
19111;SDS011;9688;51.906;8.376;2022-08-21T00:23:12;19.80;;;12.17;;
19111;SDS011;9688;51.906;8.376;2022-08-21T00:26:17;13.70;;;11.70;;
19111;SDS011;9688;51.906;8.376;2022-08-21T00:29:22;22.53;;;13.20;;
19111;SDS011;9688;51.906;8.376;2022-08-21T00:32:27;16.00;;;11.63;;
19111;SDS011;9688;51.906;8.376;2022-08-21T00:35:33;19.17;;;12.40;;
19111;SDS011;9688;51.906;8.376;2022-08-21T00:38:41;15.97;;;12.40;;
19111;SDS011;9688;51.906;8.376;2022-08-21T00:41:45;19.00;;;12.47;;
19111;SDS011;9688;51.906;8.376;2022-08-21T00:44:50;19.07;;;12.47;;
19111;SDS011;9688;51.906;8.376;2022-08-21T00:47:54;16.27;;;11.20;;
19111;SDS011;9688;51.906;8.376;2022-08-21T00:51:00;17.77;;;11.07;;
19111;SDS011;9688;51.906;8.376;2022-08-21T00:54:10;16.53;;;11.17;;
19111;SDS011;9688;51.906;8.376;2022-08-21T00:57:16;15.93;;;11.47;;
19111;SDS011;9688;51.906;8.376;2022-08-21T01:00:30;16.63;;;11.77;;
19111;SDS011;9688;51.906;8.376;2022-08-21T01:03:36;20.17;;;10.90;;
19111;SDS011;9688;51.906;8.376;2022-08-21T01:06:41;12.23;;;10.43;;
19111;SDS011;9688;51.906;8.376;2022-08-21T01:09:47;18.10;;;11.13;;
19111;SDS011;9688;51.906;8.376;2022-08-21T01:12:52;15.97;;;11.30;;
19111;SDS011;9688;51.906;8.376;2022-08-21T01:15:59;15.03;;;11.13;;
19111;SDS011;9688;51.906;8.376;2022-08-21T01:19:06;16.13;;;11.43;;
19111;SDS011;9688;51.906;8.376;2022-08-21T01:22:13;18.73;;;11.93;;
19111;SDS011;9688;51.906;8.376;2022-08-21T01:25:18;16.60;;;11.33;;
19111;SDS011;9688;51.906;8.376;2022-08-21T01:28:23;18.73;;;12.73;;
19111;SDS011;9688;51.906;8.376;2022-08-21T01:31:28;19.17;;;13.00;;
19111;SDS011;9688;51.906;8.376;2022-08-21T01:34:35;19.87;;;14.47;;
19111;SDS011;9688;51.906;8.376;2022-08-21T01:37:43;23.30;;;15.07;;
19111;SDS011;9688;51.906;8.376;2022-08-21T01:40:48;23.50;;;15.60;;
19111;SDS011;9688;51.906;8.376;2022-08-21T01:43:53;25.73;;;16.00;;
19111;SDS011;9688;51.906;8.376;2022-08-21T01:46:57;23.77;;;15.37;;
19111;SDS011;9688;51.906;8.376;2022-08-21T01:50:05;23.37;;;15.83;;
19111;SDS011;9688;51.906;8.376;2022-08-21T01:53:13;19.73;;;14.00;;
19111;SDS011;9688;51.906;8.376;2022-08-21T01:56:18;19.03;;;14.40;;
19111;SDS011;9688;51.906;8.376;2022-08-21T01:59:22;17.97;;;12.97;;
19111;SDS011;9688;51.906;8.376;2022-08-21T02:02:28;14.93;;;11.40;;
19111;SDS011;9688;51.906;8.376;2022-08-21T02:05:33;15.20;;;11.23;;
19111;SDS011;9688;51.906;8.376;2022-08-21T02:08:39;16.93;;;10.10;;
19111;SDS011;9688;51.906;8.376;2022-08-21T02:11:44;12.40;;;9.47;;
19111;SDS011;9688;51.906;8.376;2022-08-21T02:14:49;11.80;;;9.47;;
19111;SDS011;9688;51.906;8.376;2022-08-21T02:17:54;11.53;;;9.27;;
19111;SDS011;9688;51.906;8.376;2022-08-21T02:21:00;12.00;;;8.90;;
19111;SDS011;9688;51.906;8.376;2022-08-21T02:24:06;11.77;;;9.50;;
19111;SDS011;9688;51.906;8.376;2022-08-21T02:27:11;14.67;;;9.57;;
19111;SDS011;9688;51.906;8.376;2022-08-21T02:30:17;16.20;;;10.23;;
19111;SDS011;9688;51.906;8.376;2022-08-21T02:33:23;12.60;;;10.77;;
19111;SDS011;9688;51.906;8.376;2022-08-21T02:36:29;11.73;;;9.67;;
19111;SDS011;9688;51.906;8.376;2022-08-21T02:39:34;13.77;;;9.10;;
19111;SDS011;9688;51.906;8.376;2022-08-21T02:42:39;14.57;;;10.83;;
19111;SDS011;9688;51.906;8.376;2022-08-21T02:45:44;13.83;;;10.00;;
19111;SDS011;9688;51.906;8.376;2022-08-21T02:48:49;13.83;;;10.23;;
19111;SDS011;9688;51.906;8.376;2022-08-21T02:51:54;15.97;;;10.30;;
19111;SDS011;9688;51.906;8.376;2022-08-21T02:55:00;14.33;;;10.27;;
19111;SDS011;9688;51.906;8.376;2022-08-21T02:58:05;14.40;;;10.37;;
19111;SDS011;9688;51.906;8.376;2022-08-21T03:01:11;13.30;;;8.90;;
19111;SDS011;9688;51.906;8.376;2022-08-21T03:04:16;11.83;;;9.33;;
19111;SDS011;9688;51.906;8.376;2022-08-21T03:07:21;12.60;;;9.03;;
19111;SDS011;9688;51.906;8.376;2022-08-21T03:10:27;14.37;;;9.30;;
19111;SDS011;9688;51.906;8.376;2022-08-21T03:13:33;13.87;;;10.13;;
19111;SDS011;9688;51.906;8.376;2022-08-21T03:16:38;12.57;;;10.10;;
19111;SDS011;9688;51.906;8.376;2022-08-21T03:19:42;14.23;;;10.60;;
19111;SDS011;9688;51.906;8.376;2022-08-21T03:22:46;14.10;;;8.70;;
19111;SDS011;9688;51.906;8.376;2022-08-21T03:25:52;12.97;;;9.53;;
19111;SDS011;9688;51.906;8.376;2022-08-21T03:28:57;17.47;;;10.27;;
19111;SDS011;9688;51.906;8.376;2022-08-21T03:32:02;17.60;;;10.93;;
19111;SDS011;9688;51.906;8.376;2022-08-21T03:35:06;17.03;;;10.97;;
19111;SDS011;9688;51.906;8.376;2022-08-21T03:38:12;14.83;;;9.03;;
19111;SDS011;9688;51.906;8.376;2022-08-21T03:41:18;11.87;;;9.63;;
19111;SDS011;9688;51.906;8.376;2022-08-21T03:44:23;12.83;;;9.03;;
19111;SDS011;9688;51.906;8.376;2022-08-21T03:47:27;16.40;;;9.87;;
19111;SDS011;9688;51.906;8.376;2022-08-21T03:50:33;14.93;;;10.47;;
19111;SDS011;9688;51.906;8.376;2022-08-21T03:53:40;17.00;;;11.50;;
19111;SDS011;9688;51.906;8.376;2022-08-21T03:56:46;17.10;;;12.70;;
19111;SDS011;9688;51.906;8.376;2022-08-21T03:59:50;18.27;;;11.93;;
19111;SDS011;9688;51.906;8.376;2022-08-21T04:02:54;18.83;;;12.17;;
19111;SDS011;9688;51.906;8.376;2022-08-21T04:05:59;20.83;;;12.27;;
19111;SDS011;9688;51.906;8.376;2022-08-21T04:09:03;18.47;;;13.33;;
19111;SDS011;9688;51.906;8.376;2022-08-21T04:12:09;17.10;;;11.83;;
19111;SDS011;9688;51.906;8.376;2022-08-21T04:15:13;19.80;;;13.10;;
19111;SDS011;9688;51.906;8.376;2022-08-21T04:18:18;16.97;;;12.17;;
19111;SDS011;9688;51.906;8.376;2022-08-21T04:21:23;17.07;;;12.27;;
19111;SDS011;9688;51.906;8.376;2022-08-21T04:24:27;20.53;;;12.67;;
19111;SDS011;9688;51.906;8.376;2022-08-21T04:27:33;19.87;;;12.63;;
19111;SDS011;9688;51.906;8.376;2022-08-21T04:30:38;20.17;;;12.53;;
19111;SDS011;9688;51.906;8.376;2022-08-21T04:33:42;13.93;;;10.63;;
19111;SDS011;9688;51.906;8.376;2022-08-21T04:36:47;15.07;;;11.10;;
19111;SDS011;9688;51.906;8.376;2022-08-21T04:39:51;18.37;;;12.43;;
19111;SDS011;9688;51.906;8.376;2022-08-21T04:43:00;16.50;;;11.63;;
19111;SDS011;9688;51.906;8.376;2022-08-21T04:46:07;15.47;;;10.27;;
19111;SDS011;9688;51.906;8.376;2022-08-21T04:49:12;19.10;;;12.50;;
19111;SDS011;9688;51.906;8.376;2022-08-21T04:52:17;14.20;;;9.83;;
19111;SDS011;9688;51.906;8.376;2022-08-21T04:55:25;11.33;;;10.03;;
19111;SDS011;9688;51.906;8.376;2022-08-21T04:58:32;15.47;;;11.23;;
19111;SDS011;9688;51.906;8.376;2022-08-21T05:01:38;16.07;;;11.40;;
19111;SDS011;9688;51.906;8.376;2022-08-21T05:04:45;15.27;;;10.83;;
19111;SDS011;9688;51.906;8.376;2022-08-21T05:07:57;18.57;;;10.60;;
19111;SDS011;9688;51.906;8.376;2022-08-21T05:11:05;19.40;;;11.63;;
19111;SDS011;9688;51.906;8.376;2022-08-21T05:14:12;21.10;;;11.13;;
19111;SDS011;9688;51.906;8.376;2022-08-21T05:17:17;14.83;;;10.87;;
19111;SDS011;9688;51.906;8.376;2022-08-21T05:20:22;16.00;;;11.63;;
19111;SDS011;9688;51.906;8.376;2022-08-21T05:23:27;18.97;;;12.27;;
19111;SDS011;9688;51.906;8.376;2022-08-21T05:26:31;16.17;;;11.03;;
19111;SDS011;9688;51.906;8.376;2022-08-21T05:29:37;16.63;;;11.73;;
19111;SDS011;9688;51.906;8.376;2022-08-21T05:32:42;15.47;;;10.83;;
19111;SDS011;9688;51.906;8.376;2022-08-21T05:35:48;18.60;;;12.20;;
19111;SDS011;9688;51.906;8.376;2022-08-21T05:38:53;17.47;;;11.00;;
19111;SDS011;9688;51.906;8.376;2022-08-21T05:41:58;14.83;;;11.30;;
19111;SDS011;9688;51.906;8.376;2022-08-21T05:45:04;19.43;;;12.87;;
19111;SDS011;9688;51.906;8.376;2022-08-21T05:48:11;20.10;;;12.73;;
19111;SDS011;9688;51.906;8.376;2022-08-21T05:51:18;14.47;;;11.90;;
19111;SDS011;9688;51.906;8.376;2022-08-21T05:54:23;16.50;;;11.33;;
19111;SDS011;9688;51.906;8.376;2022-08-21T05:57:28;19.17;;;12.00;;
19111;SDS011;9688;51.906;8.376;2022-08-21T06:00:33;19.57;;;11.13;;
19111;SDS011;9688;51.906;8.376;2022-08-21T06:03:39;17.50;;;12.07;;
19111;SDS011;9688;51.906;8.376;2022-08-21T06:06:44;23.17;;;11.90;;
19111;SDS011;9688;51.906;8.376;2022-08-21T06:09:50;18.63;;;12.63;;
19111;SDS011;9688;51.906;8.376;2022-08-21T06:12:54;15.63;;;11.10;;
19111;SDS011;9688;51.906;8.376;2022-08-21T06:16:07;19.90;;;11.77;;
19111;SDS011;9688;51.906;8.376;2022-08-21T06:19:13;20.27;;;12.10;;
19111;SDS011;9688;51.906;8.376;2022-08-21T06:22:17;17.23;;;12.50;;
19111;SDS011;9688;51.906;8.376;2022-08-21T06:25:22;20.50;;;12.30;;
19111;SDS011;9688;51.906;8.376;2022-08-21T06:28:26;22.37;;;12.73;;
19111;SDS011;9688;51.906;8.376;2022-08-21T06:31:32;17.83;;;11.20;;
19111;SDS011;9688;51.906;8.376;2022-08-21T06:34:37;19.10;;;12.07;;
19111;SDS011;9688;51.906;8.376;2022-08-21T06:37:43;18.67;;;11.73;;
19111;SDS011;9688;51.906;8.376;2022-08-21T06:40:47;17.40;;;10.83;;
19111;SDS011;9688;51.906;8.376;2022-08-21T06:43:52;22.67;;;12.17;;
19111;SDS011;9688;51.906;8.376;2022-08-21T06:46:58;17.30;;;12.10;;
19111;SDS011;9688;51.906;8.376;2022-08-21T06:50:06;17.17;;;11.77;;
19111;SDS011;9688;51.906;8.376;2022-08-21T06:53:13;19.23;;;10.50;;
19111;SDS011;9688;51.906;8.376;2022-08-21T06:56:19;18.83;;;11.10;;
19111;SDS011;9688;51.906;8.376;2022-08-21T06:59:24;13.40;;;9.87;;
19111;SDS011;9688;51.906;8.376;2022-08-21T07:02:30;18.03;;;10.03;;
19111;SDS011;9688;51.906;8.376;2022-08-21T07:05:36;20.23;;;10.60;;
19111;SDS011;9688;51.906;8.376;2022-08-21T07:08:40;18.17;;;9.73;;
19111;SDS011;9688;51.906;8.376;2022-08-21T07:11:45;13.97;;;9.60;;
19111;SDS011;9688;51.906;8.376;2022-08-21T07:14:54;19.13;;;10.77;;
19111;SDS011;9688;51.906;8.376;2022-08-21T07:18:00;17.90;;;10.07;;
19111;SDS011;9688;51.906;8.376;2022-08-21T07:21:05;21.80;;;9.70;;
19111;SDS011;9688;51.906;8.376;2022-08-21T07:24:11;17.87;;;10.10;;
19111;SDS011;9688;51.906;8.376;2022-08-21T07:27:15;19.87;;;10.23;;
19111;SDS011;9688;51.906;8.376;2022-08-21T07:30:21;25.30;;;10.47;;
19111;SDS011;9688;51.906;8.376;2022-08-21T07:33:30;20.20;;;10.37;;
19111;SDS011;9688;51.906;8.376;2022-08-21T07:36:36;18.30;;;9.10;;
19111;SDS011;9688;51.906;8.376;2022-08-21T07:39:40;21.17;;;9.77;;
19111;SDS011;9688;51.906;8.376;2022-08-21T07:42:48;17.97;;;9.07;;
19111;SDS011;9688;51.906;8.376;2022-08-21T07:45:54;16.07;;;8.70;;
19111;SDS011;9688;51.906;8.376;2022-08-21T07:49:01;18.40;;;9.40;;
19111;SDS011;9688;51.906;8.376;2022-08-21T07:52:06;20.83;;;8.20;;
19111;SDS011;9688;51.906;8.376;2022-08-21T07:55:11;14.30;;;7.00;;
19111;SDS011;9688;51.906;8.376;2022-08-21T07:58:18;17.13;;;8.30;;
19111;SDS011;9688;51.906;8.376;2022-08-21T08:01:23;15.07;;;8.00;;
19111;SDS011;9688;51.906;8.376;2022-08-21T08:04:30;15.13;;;7.20;;
19111;SDS011;9688;51.906;8.376;2022-08-21T08:07:35;12.30;;;7.27;;
19111;SDS011;9688;51.906;8.376;2022-08-21T08:10:40;11.83;;;7.10;;
19111;SDS011;9688;51.906;8.376;2022-08-21T08:13:46;15.57;;;6.20;;
19111;SDS011;9688;51.906;8.376;2022-08-21T08:16:52;12.83;;;5.80;;
19111;SDS011;9688;51.906;8.376;2022-08-21T08:19:58;11.90;;;5.60;;
19111;SDS011;9688;51.906;8.376;2022-08-21T08:23:04;14.43;;;5.77;;
19111;SDS011;9688;51.906;8.376;2022-08-21T08:26:08;7.97;;;4.57;;
19111;SDS011;9688;51.906;8.376;2022-08-21T08:29:13;12.93;;;5.30;;
19111;SDS011;9688;51.906;8.376;2022-08-21T08:32:18;7.23;;;4.50;;
19111;SDS011;9688;51.906;8.376;2022-08-21T08:35:24;11.70;;;6.50;;
19111;SDS011;9688;51.906;8.376;2022-08-21T08:38:31;10.67;;;5.63;;
19111;SDS011;9688;51.906;8.376;2022-08-21T08:41:36;13.53;;;5.70;;
19111;SDS011;9688;51.906;8.376;2022-08-21T08:44:40;12.60;;;5.70;;
19111;SDS011;9688;51.906;8.376;2022-08-21T08:47:46;12.15;;;5.45;;
19111;SDS011;9688;51.906;8.376;2022-08-21T08:50:56;9.15;;;5.07;;
19111;SDS011;9688;51.906;8.376;2022-08-21T08:54:04;10.02;;;5.00;;
19111;SDS011;9688;51.906;8.376;2022-08-21T08:57:14;11.77;;;5.38;;
19111;SDS011;9688;51.906;8.376;2022-08-21T09:00:22;12.00;;;4.93;;
19111;SDS011;9688;51.906;8.376;2022-08-21T09:03:27;9.82;;;4.80;;
19111;SDS011;9688;51.906;8.376;2022-08-21T09:10:10;9.75;;;4.35;;
19111;SDS011;9688;51.906;8.376;2022-08-21T09:13:19;11.20;;;4.47;;
19111;SDS011;9688;51.906;8.376;2022-08-21T09:16:29;7.35;;;3.10;;
19111;SDS011;9688;51.906;8.376;2022-08-21T09:19:49;8.13;;;3.42;;
19111;SDS011;9688;51.906;8.376;2022-08-21T09:23:07;10.60;;;3.40;;
19111;SDS011;9688;51.906;8.376;2022-08-21T09:26:25;7.93;;;3.78;;
19111;SDS011;9688;51.906;8.376;2022-08-21T09:29:31;8.02;;;3.22;;
19111;SDS011;9688;51.906;8.376;2022-08-21T09:32:39;7.50;;;3.40;;
19111;SDS011;9688;51.906;8.376;2022-08-21T09:35:50;6.68;;;3.50;;
19111;SDS011;9688;51.906;8.376;2022-08-21T09:38:58;8.32;;;3.20;;
19111;SDS011;9688;51.906;8.376;2022-08-21T09:42:03;9.57;;;3.92;;
19111;SDS011;9688;51.906;8.376;2022-08-21T09:45:11;7.97;;;3.20;;
19111;SDS011;9688;51.906;8.376;2022-08-21T09:48:18;6.38;;;3.40;;
19111;SDS011;9688;51.906;8.376;2022-08-21T09:51:25;6.75;;;2.83;;
19111;SDS011;9688;51.906;8.376;2022-08-21T09:54:34;5.25;;;2.75;;
19111;SDS011;9688;51.906;8.376;2022-08-21T09:57:43;9.55;;;2.70;;
19111;SDS011;9688;51.906;8.376;2022-08-21T10:00:56;6.18;;;2.80;;
19111;SDS011;9688;51.906;8.376;2022-08-21T10:04:03;3.92;;;2.80;;
19111;SDS011;9688;51.906;8.376;2022-08-21T10:07:09;7.70;;;2.60;;
19111;SDS011;9688;51.906;8.376;2022-08-21T10:10:19;10.07;;;2.90;;
19111;SDS011;9688;51.906;8.376;2022-08-21T10:13:27;4.45;;;2.30;;
19111;SDS011;9688;51.906;8.376;2022-08-21T10:16:44;6.55;;;2.00;;
19111;SDS011;9688;51.906;8.376;2022-08-21T10:20:00;7.10;;;2.40;;
19111;SDS011;9688;51.906;8.376;2022-08-21T10:23:23;7.90;;;2.55;;
19111;SDS011;9688;51.906;8.376;2022-08-21T10:26:44;6.57;;;2.00;;
19111;SDS011;9688;51.906;8.376;2022-08-21T10:30:00;7.38;;;2.83;;
19111;SDS011;9688;51.906;8.376;2022-08-21T10:33:19;7.30;;;2.55;;
19111;SDS011;9688;51.906;8.376;2022-08-21T10:36:39;8.13;;;2.72;;
19111;SDS011;9688;51.906;8.376;2022-08-21T10:39:52;6.57;;;2.60;;
19111;SDS011;9688;51.906;8.376;2022-08-21T10:43:15;9.05;;;2.75;;
19111;SDS011;9688;51.906;8.376;2022-08-21T10:46:32;6.07;;;2.63;;
19111;SDS011;9688;51.906;8.376;2022-08-21T10:49:48;4.75;;;2.42;;
19111;SDS011;9688;51.906;8.376;2022-08-21T10:53:06;5.63;;;2.15;;
19111;SDS011;9688;51.906;8.376;2022-08-21T10:56:21;4.93;;;2.20;;
19111;SDS011;9688;51.906;8.376;2022-08-21T10:59:31;8.52;;;2.85;;
19111;SDS011;9688;51.906;8.376;2022-08-21T11:02:49;6.45;;;2.78;;
19111;SDS011;9688;51.906;8.376;2022-08-21T11:05:58;8.20;;;2.65;;
19111;SDS011;9688;51.906;8.376;2022-08-21T11:09:08;6.13;;;2.70;;
19111;SDS011;9688;51.906;8.376;2022-08-21T11:12:19;8.23;;;2.35;;
19111;SDS011;9688;51.906;8.376;2022-08-21T11:15:31;7.25;;;2.83;;
19111;SDS011;9688;51.906;8.376;2022-08-21T11:18:42;9.95;;;2.85;;
19111;SDS011;9688;51.906;8.376;2022-08-21T11:21:52;5.63;;;2.83;;
19111;SDS011;9688;51.906;8.376;2022-08-21T11:25:03;7.07;;;2.50;;
19111;SDS011;9688;51.906;8.376;2022-08-21T11:28:15;8.23;;;3.10;;
19111;SDS011;9688;51.906;8.376;2022-08-21T11:31:31;6.07;;;2.35;;
19111;SDS011;9688;51.906;8.376;2022-08-21T11:34:47;5.65;;;2.40;;
19111;SDS011;9688;51.906;8.376;2022-08-21T11:38:04;6.63;;;2.35;;
19111;SDS011;9688;51.906;8.376;2022-08-21T11:41:22;5.78;;;3.10;;
19111;SDS011;9688;51.906;8.376;2022-08-21T11:44:36;6.88;;;2.80;;
19111;SDS011;9688;51.906;8.376;2022-08-21T11:47:54;7.03;;;2.42;;
19111;SDS011;9688;51.906;8.376;2022-08-21T11:51:04;7.10;;;2.85;;
19111;SDS011;9688;51.906;8.376;2022-08-21T11:54:19;6.63;;;3.03;;
19111;SDS011;9688;51.906;8.376;2022-08-21T11:57:30;7.65;;;3.13;;
19111;SDS011;9688;51.906;8.376;2022-08-21T12:00:39;6.38;;;2.70;;
19111;SDS011;9688;51.906;8.376;2022-08-21T12:03:53;7.55;;;2.67;;
19111;SDS011;9688;51.906;8.376;2022-08-21T12:07:10;8.82;;;2.50;;
19111;SDS011;9688;51.906;8.376;2022-08-21T12:10:18;3.53;;;2.50;;
19111;SDS011;9688;51.906;8.376;2022-08-21T12:13:35;4.75;;;2.00;;
19111;SDS011;9688;51.906;8.376;2022-08-21T12:16:42;6.43;;;2.30;;
19111;SDS011;9688;51.906;8.376;2022-08-21T12:19:58;6.43;;;2.03;;
19111;SDS011;9688;51.906;8.376;2022-08-21T12:23:16;6.97;;;2.00;;
19111;SDS011;9688;51.906;8.376;2022-08-21T12:26:28;3.25;;;1.70;;
19111;SDS011;9688;51.906;8.376;2022-08-21T12:29:36;3.45;;;2.13;;
19111;SDS011;9688;51.906;8.376;2022-08-21T12:32:45;3.53;;;1.70;;
19111;SDS011;9688;51.906;8.376;2022-08-21T12:36:03;3.65;;;1.90;;
19111;SDS011;9688;51.906;8.376;2022-08-21T12:39:12;4.95;;;1.73;;
19111;SDS011;9688;51.906;8.376;2022-08-21T12:42:22;4.28;;;1.40;;
19111;SDS011;9688;51.906;8.376;2022-08-21T12:45:32;1.50;;;1.40;;
19111;SDS011;9688;51.906;8.376;2022-08-21T12:48:39;3.25;;;1.60;;
19111;SDS011;9688;51.906;8.376;2022-08-21T12:51:52;2.75;;;1.50;;
19111;SDS011;9688;51.906;8.376;2022-08-21T12:55:01;4.45;;;1.70;;
19111;SDS011;9688;51.906;8.376;2022-08-21T12:58:06;5.10;;;1.70;;
19111;SDS011;9688;51.906;8.376;2022-08-21T13:01:22;4.20;;;1.38;;
19111;SDS011;9688;51.906;8.376;2022-08-21T13:04:33;4.22;;;1.42;;
19111;SDS011;9688;51.906;8.376;2022-08-21T13:07:43;6.40;;;1.60;;
19111;SDS011;9688;51.906;8.376;2022-08-21T13:10:57;5.43;;;1.85;;
19111;SDS011;9688;51.906;8.376;2022-08-21T13:14:04;3.97;;;1.95;;
19111;SDS011;9688;51.906;8.376;2022-08-21T13:17:14;3.63;;;1.40;;
19111;SDS011;9688;51.906;8.376;2022-08-21T13:20:21;5.88;;;1.70;;
19111;SDS011;9688;51.906;8.376;2022-08-21T13:23:29;3.70;;;1.77;;
19111;SDS011;9688;51.906;8.376;2022-08-21T13:26:34;4.68;;;1.30;;
19111;SDS011;9688;51.906;8.376;2022-08-21T13:29:39;2.60;;;1.27;;
19111;SDS011;9688;51.906;8.376;2022-08-21T13:32:47;2.30;;;1.50;;
19111;SDS011;9688;51.906;8.376;2022-08-21T13:35:57;2.78;;;1.58;;
19111;SDS011;9688;51.906;8.376;2022-08-21T13:39:11;2.47;;;1.45;;
19111;SDS011;9688;51.906;8.376;2022-08-21T13:42:21;3.03;;;1.60;;
19111;SDS011;9688;51.906;8.376;2022-08-21T13:45:29;3.10;;;1.85;;
19111;SDS011;9688;51.906;8.376;2022-08-21T13:48:35;4.15;;;1.92;;
19111;SDS011;9688;51.906;8.376;2022-08-21T13:51:42;4.63;;;2.30;;
19111;SDS011;9688;51.906;8.376;2022-08-21T13:54:54;3.90;;;1.73;;
19111;SDS011;9688;51.906;8.376;2022-08-21T13:58:02;3.38;;;1.98;;
19111;SDS011;9688;51.906;8.376;2022-08-21T14:01:15;6.30;;;1.90;;
19111;SDS011;9688;51.906;8.376;2022-08-21T14:04:24;2.53;;;1.42;;
19111;SDS011;9688;51.906;8.376;2022-08-21T14:07:34;4.10;;;1.67;;
19111;SDS011;9688;51.906;8.376;2022-08-21T14:10:43;2.67;;;1.65;;
19111;SDS011;9688;51.906;8.376;2022-08-21T14:13:51;4.03;;;1.83;;
19111;SDS011;9688;51.906;8.376;2022-08-21T14:17:03;3.08;;;1.42;;
19111;SDS011;9688;51.906;8.376;2022-08-21T14:20:11;3.25;;;1.52;;
19111;SDS011;9688;51.906;8.376;2022-08-21T14:23:28;3.50;;;1.70;;
19111;SDS011;9688;51.906;8.376;2022-08-21T14:26:35;3.97;;;1.42;;
19111;SDS011;9688;51.906;8.376;2022-08-21T14:29:47;3.13;;;1.83;;
19111;SDS011;9688;51.906;8.376;2022-08-21T14:32:51;1.63;;;1.50;;
19111;SDS011;9688;51.906;8.376;2022-08-21T14:35:56;5.97;;;1.60;;
19111;SDS011;9688;51.906;8.376;2022-08-21T14:39:01;1.63;;;1.10;;
19111;SDS011;9688;51.906;8.376;2022-08-21T14:42:06;3.47;;;1.50;;
19111;SDS011;9688;51.906;8.376;2022-08-21T14:45:13;4.35;;;1.48;;
19111;SDS011;9688;51.906;8.376;2022-08-21T14:48:24;2.78;;;1.55;;
19111;SDS011;9688;51.906;8.376;2022-08-21T14:51:29;2.72;;;1.10;;
19111;SDS011;9688;51.906;8.376;2022-08-21T14:54:34;3.45;;;0.98;;
19111;SDS011;9688;51.906;8.376;2022-08-21T14:57:41;1.55;;;1.23;;
19111;SDS011;9688;51.906;8.376;2022-08-21T15:00:49;1.70;;;1.10;;
19111;SDS011;9688;51.906;8.376;2022-08-21T15:03:55;4.30;;;1.20;;
19111;SDS011;9688;51.906;8.376;2022-08-21T15:06:59;1.92;;;1.15;;
19111;SDS011;9688;51.906;8.376;2022-08-21T15:10:05;1.20;;;1.10;;
19111;SDS011;9688;51.906;8.376;2022-08-21T15:13:14;4.00;;;2.00;;
19111;SDS011;9688;51.906;8.376;2022-08-21T15:16:19;1.42;;;1.17;;
19111;SDS011;9688;51.906;8.376;2022-08-21T15:19:24;1.67;;;1.25;;
19111;SDS011;9688;51.906;8.376;2022-08-21T15:22:29;3.30;;;1.20;;
19111;SDS011;9688;51.906;8.376;2022-08-21T15:25:33;1.80;;;1.20;;
19111;SDS011;9688;51.906;8.376;2022-08-21T15:28:39;2.00;;;1.13;;
19111;SDS011;9688;51.906;8.376;2022-08-21T15:31:49;3.58;;;1.33;;
19111;SDS011;9688;51.906;8.376;2022-08-21T15:34:56;3.42;;;1.23;;
19111;SDS011;9688;51.906;8.376;2022-08-21T15:38:02;1.73;;;1.20;;
19111;SDS011;9688;51.906;8.376;2022-08-21T15:41:07;3.63;;;1.40;;
19111;SDS011;9688;51.906;8.376;2022-08-21T15:44:13;2.10;;;1.40;;
19111;SDS011;9688;51.906;8.376;2022-08-21T15:47:21;2.00;;;1.13;;
19111;SDS011;9688;51.906;8.376;2022-08-21T15:50:29;2.40;;;1.35;;
19111;SDS011;9688;51.906;8.376;2022-08-21T15:53:34;2.10;;;1.30;;
19111;SDS011;9688;51.906;8.376;2022-08-21T15:56:42;3.85;;;1.50;;
19111;SDS011;9688;51.906;8.376;2022-08-21T15:59:52;4.40;;;1.75;;
19111;SDS011;9688;51.906;8.376;2022-08-21T16:02:59;1.98;;;1.30;;
19111;SDS011;9688;51.906;8.376;2022-08-21T16:06:08;5.05;;;1.30;;
19111;SDS011;9688;51.906;8.376;2022-08-21T16:09:13;3.15;;;1.25;;
19111;SDS011;9688;51.906;8.376;2022-08-21T16:12:19;2.38;;;1.35;;
19111;SDS011;9688;51.906;8.376;2022-08-21T16:15:29;2.28;;;1.40;;
19111;SDS011;9688;51.906;8.376;2022-08-21T16:18:34;1.88;;;1.40;;
19111;SDS011;9688;51.906;8.376;2022-08-21T16:21:38;2.42;;;1.40;;
19111;SDS011;9688;51.906;8.376;2022-08-21T16:24:43;5.15;;;2.00;;
19111;SDS011;9688;51.906;8.376;2022-08-21T16:27:48;3.40;;;1.20;;
19111;SDS011;9688;51.906;8.376;2022-08-21T16:30:58;3.17;;;1.40;;
19111;SDS011;9688;51.906;8.376;2022-08-21T16:34:03;3.03;;;2.10;;
19111;SDS011;9688;51.906;8.376;2022-08-21T16:37:08;1.83;;;1.25;;
19111;SDS011;9688;51.906;8.376;2022-08-21T16:40:14;4.13;;;1.50;;
19111;SDS011;9688;51.906;8.376;2022-08-21T16:43:19;1.80;;;1.23;;
19111;SDS011;9688;51.906;8.376;2022-08-21T16:46:26;2.80;;;1.50;;
19111;SDS011;9688;51.906;8.376;2022-08-21T16:49:32;3.70;;;1.42;;
19111;SDS011;9688;51.906;8.376;2022-08-21T16:52:36;2.95;;;1.70;;
19111;SDS011;9688;51.906;8.376;2022-08-21T16:55:41;4.20;;;1.67;;
19111;SDS011;9688;51.906;8.376;2022-08-21T16:58:47;2.55;;;1.25;;
19111;SDS011;9688;51.906;8.376;2022-08-21T17:01:55;1.50;;;1.20;;
19111;SDS011;9688;51.906;8.376;2022-08-21T17:05:01;1.65;;;1.33;;
19111;SDS011;9688;51.906;8.376;2022-08-21T17:08:07;5.78;;;1.40;;
19111;SDS011;9688;51.906;8.376;2022-08-21T17:11:14;2.92;;;1.23;;
19111;SDS011;9688;51.906;8.376;2022-08-21T17:14:24;2.88;;;1.50;;
19111;SDS011;9688;51.906;8.376;2022-08-21T17:17:30;4.63;;;1.42;;
19111;SDS011;9688;51.906;8.376;2022-08-21T17:20:36;2.63;;;1.40;;
19111;SDS011;9688;51.906;8.376;2022-08-21T17:23:41;2.97;;;1.50;;
19111;SDS011;9688;51.906;8.376;2022-08-21T17:26:46;2.05;;;1.38;;
19111;SDS011;9688;51.906;8.376;2022-08-21T17:29:51;1.92;;;1.30;;
19111;SDS011;9688;51.906;8.376;2022-08-21T17:33:00;5.57;;;1.38;;
19111;SDS011;9688;51.906;8.376;2022-08-21T17:36:06;4.95;;;1.50;;
19111;SDS011;9688;51.906;8.376;2022-08-21T17:39:11;2.20;;;1.65;;
19111;SDS011;9688;51.906;8.376;2022-08-21T17:42:18;3.33;;;1.50;;
19111;SDS011;9688;51.906;8.376;2022-08-21T17:45:24;4.32;;;1.38;;
19111;SDS011;9688;51.906;8.376;2022-08-21T17:48:30;2.28;;;1.80;;
19111;SDS011;9688;51.906;8.376;2022-08-21T17:51:35;2.05;;;1.48;;
19111;SDS011;9688;51.906;8.376;2022-08-21T17:54:39;3.40;;;1.60;;
19111;SDS011;9688;51.906;8.376;2022-08-21T17:57:44;1.92;;;1.70;;
19111;SDS011;9688;51.906;8.376;2022-08-21T18:00:52;2.42;;;1.45;;
19111;SDS011;9688;51.906;8.376;2022-08-21T18:03:57;3.40;;;1.73;;
19111;SDS011;9688;51.906;8.376;2022-08-21T18:07:02;3.53;;;1.63;;
19111;SDS011;9688;51.906;8.376;2022-08-21T18:10:08;6.32;;;2.50;;
19111;SDS011;9688;51.906;8.376;2022-08-21T18:13:19;2.83;;;1.70;;
19111;SDS011;9688;51.906;8.376;2022-08-21T18:16:28;4.72;;;2.10;;
19111;SDS011;9688;51.906;8.376;2022-08-21T18:19:36;3.97;;;1.70;;
19111;SDS011;9688;51.906;8.376;2022-08-21T18:22:41;4.88;;;1.88;;
19111;SDS011;9688;51.906;8.376;2022-08-21T18:25:48;4.35;;;2.17;;
19111;SDS011;9688;51.906;8.376;2022-08-21T18:28:56;5.00;;;1.73;;
19111;SDS011;9688;51.906;8.376;2022-08-21T18:32:03;1.67;;;1.52;;
19111;SDS011;9688;51.906;8.376;2022-08-21T18:35:11;3.67;;;1.52;;
19111;SDS011;9688;51.906;8.376;2022-08-21T18:38:17;3.85;;;1.77;;
19111;SDS011;9688;51.906;8.376;2022-08-21T18:41:23;2.83;;;1.42;;
19111;SDS011;9688;51.906;8.376;2022-08-21T18:44:27;4.30;;;1.63;;
19111;SDS011;9688;51.906;8.376;2022-08-21T18:47:35;2.75;;;1.73;;
19111;SDS011;9688;51.906;8.376;2022-08-21T18:50:46;2.47;;;1.60;;
19111;SDS011;9688;51.906;8.376;2022-08-21T18:53:51;3.20;;;1.70;;
19111;SDS011;9688;51.906;8.376;2022-08-21T18:56:56;3.72;;;1.80;;